createdAt,value
2019-05-01T00:00:19.371Z,5.90
2019-05-01T00:03:05.722Z,5.90
2019-05-01T00:05:38.560Z,5.90
2019-05-01T00:08:09.961Z,5.90
2019-05-01T00:10:38.355Z,5.80
2019-05-01T00:13:08.389Z,5.80
2019-05-01T00:15:38.752Z,5.70
2019-05-01T00:18:07.217Z,5.70
2019-05-01T00:20:35.682Z,5.70
2019-05-01T00:23:04.148Z,5.70
2019-05-01T00:25:32.549Z,5.70
2019-05-01T00:28:01.012Z,5.60
2019-05-01T00:30:31.057Z,5.60
2019-05-01T00:32:59.433Z,5.70
2019-05-01T00:35:27.832Z,5.70
2019-05-01T00:37:56.218Z,5.70
2019-05-01T00:40:24.612Z,5.60
2019-05-01T00:42:54.041Z,5.60
2019-05-01T00:45:22.436Z,5.60
2019-05-01T00:47:50.843Z,5.50
2019-05-01T00:50:19.230Z,5.50
2019-05-01T00:52:47.616Z,5.50
2019-05-01T00:55:34.569Z,5.50
2019-05-01T00:58:21.017Z,5.40
2019-05-01T01:00:51.054Z,5.40
2019-05-01T01:03:19.448Z,5.40
2019-05-01T01:05:47.852Z,5.30
2019-05-01T01:08:30.186Z,5.30
2019-05-01T01:10:58.657Z,5.30
2019-05-01T01:13:27.044Z,5.30
2019-05-01T01:15:55.497Z,5.30
2019-05-01T01:18:23.896Z,5.20
2019-05-01T01:20:52.356Z,5.20
2019-05-01T01:23:20.900Z,5.20
2019-05-01T01:25:49.360Z,5.10
2019-05-01T01:28:18.584Z,5.10
2019-05-01T01:30:55.971Z,5.00
2019-05-01T01:33:17.252Z,5.00
2019-05-01T01:35:45.641Z,5.00
2019-05-01T01:38:14.044Z,4.90
2019-05-01T01:40:42.660Z,4.90
2019-05-01T01:43:24.495Z,4.80
2019-05-01T01:45:54.592Z,4.80
2019-05-01T01:48:23.397Z,4.70
2019-05-01T01:50:52.460Z,4.70
2019-05-01T01:53:22.889Z,4.60
2019-05-01T01:55:53.572Z,4.60
2019-05-01T01:58:22.506Z,4.60
2019-05-01T02:00:55.238Z,4.60
2019-05-01T02:03:25.260Z,4.50
2019-05-01T02:05:54.196Z,4.50
2019-05-01T02:08:22.592Z,4.50
2019-05-01T02:10:51.065Z,4.40
2019-05-01T02:13:19.453Z,4.40
2019-05-01T02:15:53.195Z,4.30
2019-05-01T02:18:21.736Z,4.30
2019-05-01T02:20:50.135Z,4.30
2019-05-01T02:23:18.540Z,4.30
2019-05-01T02:25:46.929Z,4.40
2019-05-01T02:28:26.112Z,4.40
2019-05-01T02:31:27.348Z,4.40
2019-05-01T02:33:47.290Z,4.40
2019-05-01T02:36:19.075Z,4.30
2019-05-01T02:38:50.268Z,4.30
2019-05-01T02:41:20.017Z,4.30
2019-05-01T02:43:51.481Z,4.30
2019-05-01T02:46:21.515Z,4.30
2019-05-01T02:49:04.690Z,4.30
2019-05-01T02:51:34.319Z,4.30
2019-05-01T02:54:02.841Z,4.20
2019-05-01T02:56:35.912Z,4.20
2019-05-01T02:59:06.840Z,4.20
2019-05-01T03:01:46.330Z,4.20
2019-05-01T03:04:07.699Z,4.20
2019-05-01T03:06:38.522Z,4.20
2019-05-01T03:09:09.152Z,4.20
2019-05-01T03:11:39.725Z,4.30
2019-05-01T03:14:11.254Z,4.20
2019-05-01T03:16:41.658Z,4.20
2019-05-01T03:19:22.743Z,4.20
2019-05-01T03:21:53.652Z,4.30
2019-05-01T03:24:25.276Z,4.20
2019-05-01T03:26:54.612Z,4.20
2019-05-01T03:29:24.033Z,4.20
2019-05-01T03:32:14.573Z,4.20
2019-05-01T03:34:22.617Z,4.20
2019-05-01T03:36:51.164Z,4.20
2019-05-01T03:39:19.740Z,4.10
2019-05-01T03:41:48.602Z,4.20
2019-05-01T03:44:18.014Z,4.20
2019-05-01T03:46:46.477Z,4.10
2019-05-01T03:49:15.140Z,4.10
2019-05-01T03:51:43.913Z,4.10
2019-05-01T03:54:12.773Z,4.10
2019-05-01T03:56:41.632Z,4.30
2019-05-01T03:59:10.166Z,4.30
2019-05-01T04:01:46.845Z,4.30
2019-05-01T04:04:20.254Z,4.30
2019-05-01T04:06:49.480Z,4.30
2019-05-01T04:09:18.714Z,4.40
2019-05-01T04:11:47.373Z,4.40
2019-05-01T04:14:16.033Z,4.50
2019-05-01T04:16:47.593Z,4.60
2019-05-01T04:19:17.175Z,4.60
2019-05-01T04:21:53.626Z,4.70
2019-05-01T04:24:23.654Z,4.80
2019-05-01T04:26:52.705Z,4.90
2019-05-01T04:29:24.638Z,5.00
2019-05-01T04:31:54.788Z,5.20
2019-05-01T04:34:39.843Z,5.40
2019-05-01T04:37:13.209Z,5.50
2019-05-01T04:39:41.851Z,5.70
2019-05-01T04:42:11.086Z,5.80
2019-05-01T04:44:39.936Z,6.00
2019-05-01T04:47:08.322Z,6.00
2019-05-01T04:49:36.789Z,6.10
2019-05-01T04:52:05.318Z,6.20
2019-05-01T04:54:33.772Z,6.30
2019-05-01T04:57:02.245Z,6.40
2019-05-01T04:59:30.768Z,6.60
2019-05-01T05:02:05.116Z,6.60
2019-05-01T05:04:34.633Z,6.70
2019-05-01T05:07:03.021Z,6.80
2019-05-01T05:09:44.112Z,6.90
2019-05-01T05:12:20.284Z,6.90
2019-05-01T05:15:12.284Z,6.90
2019-05-01T05:17:42.387Z,7.00
2019-05-01T05:20:10.784Z,7.10
2019-05-01T05:22:39.241Z,7.10
2019-05-01T05:25:07.699Z,7.10
2019-05-01T05:27:36.936Z,7.20
2019-05-01T05:30:06.193Z,7.20
2019-05-01T05:32:36.690Z,7.30
2019-05-01T05:35:07.212Z,7.50
2019-05-01T05:37:57.614Z,7.50
2019-05-01T05:40:29.552Z,7.60
2019-05-01T05:42:58.093Z,7.70
2019-05-01T05:45:27.132Z,7.70
2019-05-01T05:47:57.458Z,7.60
2019-05-01T05:50:27.637Z,7.60
2019-05-01T05:55:55.177Z,7.60
2019-05-01T05:58:30.125Z,7.70
2019-05-01T06:01:07.829Z,7.70
2019-05-01T06:03:58.240Z,7.70
2019-05-01T06:07:10.429Z,7.80
2019-05-01T06:09:44.722Z,8.00
2019-05-01T06:12:21.689Z,8.10
2019-05-01T06:14:54.640Z,8.20
2019-05-01T06:17:28.538Z,8.30
2019-05-01T06:20:01.888Z,8.20
2019-05-01T06:22:49.612Z,8.30
2019-05-01T06:25:25.102Z,8.40
2019-05-01T06:27:53.284Z,8.50
2019-05-01T06:30:21.741Z,8.50
2019-05-01T06:32:50.134Z,8.40
2019-05-01T06:35:19.184Z,8.40
2019-05-01T06:38:08.704Z,8.50
2019-05-01T06:40:52.969Z,8.60
2019-05-01T06:43:32.580Z,8.80
2019-05-01T06:46:12.161Z,9.00
2019-05-01T06:49:03.332Z,9.00
2019-05-01T06:51:34.520Z,9.00
2019-05-01T06:54:11.212Z,9.20
2019-05-01T06:56:40.028Z,9.30
2019-05-01T06:59:10.654Z,9.20
2019-05-01T07:01:40.116Z,9.30
2019-05-01T07:04:08.513Z,9.40
2019-05-01T07:06:38.638Z,9.50
2019-05-01T07:09:11.735Z,9.70
2019-05-01T07:11:42.523Z,9.90
2019-05-01T07:14:15.786Z,10.00
2019-05-01T07:16:41.340Z,10.10
2019-05-01T07:19:10.961Z,10.20
2019-05-01T07:21:39.431Z,10.20
2019-05-01T07:24:07.960Z,10.30
2019-05-01T07:26:36.368Z,10.50
2019-05-01T07:29:09.934Z,10.70
2019-05-01T07:31:39.385Z,10.90
2019-05-01T07:34:16.339Z,11.00
2019-05-01T07:36:38.105Z,11.10
2019-05-01T07:39:09.797Z,11.00
2019-05-01T07:41:39.375Z,11.10
2019-05-01T07:44:18.317Z,11.20
2019-05-01T07:46:57.551Z,11.30
2019-05-01T07:49:52.631Z,11.40
2019-05-01T07:52:24.228Z,11.40
2019-05-01T07:54:54.760Z,11.60
2019-05-01T07:57:23.334Z,11.80
2019-05-01T07:59:52.320Z,11.80
2019-05-01T08:02:20.862Z,11.80
2019-05-01T08:04:49.352Z,11.70
2019-05-01T08:07:17.745Z,11.80
2019-05-01T08:09:50.298Z,12.00
2019-05-01T08:12:18.862Z,12.20
2019-05-01T08:14:47.794Z,12.40
2019-05-01T08:17:19.844Z,12.50
2019-05-01T08:19:50.077Z,12.50
2019-05-01T08:22:25.889Z,12.60
2019-05-01T08:24:58.796Z,12.60
2019-05-01T08:27:31.985Z,12.70
2019-05-01T08:30:02.244Z,12.60
2019-05-01T08:32:39.244Z,12.40
2019-05-01T08:35:09.021Z,12.30
2019-05-01T08:37:37.454Z,12.20
2019-05-01T08:40:07.500Z,12.20
2019-05-01T08:42:37.696Z,12.40
2019-05-01T08:45:08.854Z,12.50
2019-05-01T08:47:41.848Z,12.60
2019-05-01T08:50:19.819Z,12.70
2019-05-01T08:52:48.778Z,12.90
2019-05-01T08:55:17.292Z,12.90
2019-05-01T08:57:45.681Z,13.00
2019-05-01T09:00:15.700Z,13.20
2019-05-01T09:02:44.106Z,13.30
2019-05-01T09:05:27.613Z,13.50
2019-05-01T09:07:42.917Z,13.50
2019-05-01T09:10:11.621Z,13.60
2019-05-01T09:12:42.684Z,13.60
2019-05-01T09:15:12.686Z,13.40
2019-05-01T09:17:40.467Z,13.20
2019-05-01T09:20:08.929Z,13.10
2019-05-01T09:22:37.433Z,13.20
2019-05-01T09:25:07.718Z,13.20
2019-05-01T09:27:37.900Z,13.40
2019-05-01T09:30:11.731Z,13.50
2019-05-01T09:32:40.108Z,13.80
2019-05-01T09:35:22.984Z,13.90
2019-05-01T09:37:51.366Z,14.10
2019-05-01T09:40:22.867Z,14.20
2019-05-01T09:42:54.845Z,14.20
2019-05-01T09:45:21.671Z,14.20
2019-05-01T09:47:51.780Z,14.30
2019-05-01T09:50:20.311Z,14.60
2019-05-01T09:52:59.749Z,14.50
2019-05-01T09:55:27.843Z,14.60
2019-05-01T09:57:56.313Z,14.50
2019-05-01T10:00:26.627Z,14.60
2019-05-01T10:02:55.013Z,14.70
2019-05-01T10:05:28.990Z,14.80
2019-05-01T10:07:53.892Z,14.70
2019-05-01T10:10:24.847Z,14.70
2019-05-01T10:12:52.672Z,14.70
2019-05-01T10:15:21.068Z,15.10
2019-05-01T10:17:49.477Z,15.10
2019-05-01T10:20:17.873Z,15.20
2019-05-01T10:22:46.281Z,15.50
2019-05-01T10:25:14.753Z,15.70
2019-05-01T10:27:44.870Z,15.80
2019-05-01T10:30:21.904Z,15.80
2019-05-01T10:33:06.977Z,15.70
2019-05-01T10:35:50.734Z,15.90
2019-05-01T10:38:19.461Z,16.20
2019-05-01T10:40:47.865Z,16.20
2019-05-01T10:43:16.793Z,16.40
2019-05-01T10:45:45.291Z,16.60
2019-05-01T10:48:13.688Z,16.70
2019-05-01T10:50:42.271Z,17.10
2019-05-01T10:53:10.663Z,17.30
2019-05-01T10:55:39.069Z,17.70
2019-05-01T10:58:07.466Z,18.20
2019-05-01T11:00:37.496Z,18.50
2019-05-01T11:03:05.909Z,19.10
2019-05-01T11:05:34.317Z,19.40
2019-05-01T11:08:02.705Z,19.60
2019-05-01T11:10:31.109Z,19.80
2019-05-01T11:12:59.527Z,20.00
2019-05-01T11:15:27.917Z,20.30
2019-05-01T11:17:56.336Z,20.40
2019-05-01T11:20:24.740Z,20.30
2019-05-01T11:22:53.137Z,20.30
2019-05-01T11:25:21.677Z,19.80
2019-05-01T11:27:50.253Z,19.70
2019-05-01T11:30:19.450Z,19.70
2019-05-01T11:32:49.494Z,19.70
2019-05-01T11:35:36.112Z,19.40
2019-05-01T11:38:12.084Z,19.30
2019-05-01T11:40:42.113Z,19.40
2019-05-01T11:43:10.536Z,19.70
2019-05-01T11:45:38.933Z,19.70
2019-05-01T11:48:07.329Z,19.60
2019-05-01T11:50:35.786Z,19.40
2019-05-01T11:53:04.319Z,19.20
2019-05-01T11:55:32.780Z,18.90
2019-05-01T11:58:01.191Z,18.70
2019-05-01T12:00:29.585Z,18.90
2019-05-01T12:02:57.977Z,19.10
2019-05-01T12:05:26.385Z,19.40
2019-05-01T12:07:54.775Z,19.60
2019-05-01T12:10:23.173Z,19.80
2019-05-01T12:12:51.586Z,20.10
2019-05-01T12:15:21.421Z,20.40
2019-05-01T12:17:51.491Z,20.60
2019-05-01T12:20:22.792Z,20.70
2019-05-01T12:22:51.731Z,20.90
2019-05-01T12:25:20.742Z,20.90
2019-05-01T12:27:49.133Z,20.70
2019-05-01T12:30:19.573Z,20.70
2019-05-01T12:32:47.975Z,20.70
2019-05-01T12:35:16.437Z,20.90
2019-05-01T12:37:44.850Z,21.40
2019-05-01T12:40:16.022Z,21.90
2019-05-01T12:42:44.487Z,22.10
2019-05-01T12:45:15.605Z,22.30
2019-05-01T12:47:51.456Z,22.60
2019-05-01T12:50:21.379Z,22.90
2019-05-01T12:53:07.465Z,23.10
2019-05-01T12:55:40.413Z,23.20
2019-05-01T12:58:08.849Z,23.40
2019-05-01T13:00:48.184Z,23.20
2019-05-01T13:03:16.641Z,22.90
2019-05-01T13:05:45.116Z,24.00
2019-05-01T13:08:13.573Z,25.80
2019-05-01T13:10:41.977Z,27.10
2019-05-01T13:13:11.342Z,28.40
2019-05-01T13:15:40.458Z,28.40
2019-05-01T13:18:08.861Z,28.10
2019-05-01T13:20:37.271Z,27.90
2019-05-01T13:23:05.740Z,26.90
2019-05-01T13:25:34.129Z,26.00
2019-05-01T13:28:20.269Z,26.40
2019-05-01T13:30:50.374Z,26.80
2019-05-01T13:33:18.774Z,26.30
2019-05-01T13:35:47.164Z,25.60
2019-05-01T13:38:15.571Z,25.30
2019-05-01T13:40:44.032Z,25.30
2019-05-01T13:43:12.437Z,25.50
2019-05-01T13:45:40.863Z,26.90
2019-05-01T13:48:09.236Z,27.90
2019-05-01T13:50:37.628Z,28.80
2019-05-01T13:53:06.131Z,29.30
2019-05-01T13:55:34.529Z,28.90
2019-05-01T13:58:02.924Z,27.90
2019-05-01T14:00:31.361Z,28.10
2019-05-01T14:02:59.733Z,28.60
2019-05-01T14:05:28.193Z,29.00
2019-05-01T14:07:56.593Z,29.60
2019-05-01T14:10:25.170Z,30.60
2019-05-01T14:12:54.038Z,31.00
2019-05-01T14:15:22.452Z,31.10
2019-05-01T14:17:50.846Z,30.90
2019-05-01T14:20:35.994Z,30.80
2019-05-01T14:23:20.766Z,30.70
2019-05-01T14:26:06.266Z,30.40
2019-05-01T14:28:36.452Z,29.90
2019-05-01T14:31:05.896Z,29.20
2019-05-01T14:33:35.775Z,28.80
2019-05-01T14:36:05.230Z,28.70
2019-05-01T14:38:33.723Z,29.00
2019-05-01T14:41:02.165Z,29.50
2019-05-01T14:43:30.573Z,30.00
2019-05-01T14:45:58.968Z,30.30
2019-05-01T14:48:27.377Z,30.30
2019-05-01T14:50:55.780Z,30.60
2019-05-01T14:53:24.177Z,30.70
2019-05-01T14:55:52.579Z,30.40
2019-05-01T14:58:20.994Z,30.30
2019-05-01T15:00:49.390Z,30.40
2019-05-01T15:03:17.786Z,30.00
2019-05-01T15:05:46.234Z,29.40
2019-05-01T15:08:14.669Z,28.70
2019-05-01T15:10:43.060Z,28.30
2019-05-01T15:13:15.576Z,28.60
2019-05-01T15:15:45.608Z,28.80
2019-05-01T15:18:33.437Z,28.70
2019-05-01T15:21:01.837Z,28.60
2019-05-01T15:23:30.245Z,28.40
2019-05-01T15:25:59.017Z,28.60
2019-05-01T15:28:27.397Z,28.90
2019-05-01T15:30:55.788Z,28.90
2019-05-01T15:33:24.201Z,28.90
2019-05-01T15:35:52.599Z,29.00
2019-05-01T15:38:21.000Z,28.20
2019-05-01T15:40:54.231Z,27.60
2019-05-01T15:43:24.262Z,26.90
2019-05-01T15:45:52.664Z,26.70
2019-05-01T15:48:21.063Z,26.70
2019-05-01T15:50:50.483Z,27.20
2019-05-01T15:53:19.668Z,27.60
2019-05-01T15:55:48.079Z,27.90
2019-05-01T15:58:16.470Z,27.40
2019-05-01T16:00:44.946Z,26.80
2019-05-01T16:03:13.369Z,26.20
2019-05-01T16:05:41.762Z,26.10
2019-05-01T16:08:10.185Z,26.00
2019-05-01T16:10:40.353Z,25.90
2019-05-01T16:13:08.754Z,25.70
2019-05-01T16:15:37.293Z,25.10
2019-05-01T16:18:06.765Z,24.50
2019-05-01T16:20:35.184Z,23.40
2019-05-01T16:23:03.581Z,22.30
2019-05-01T16:25:31.972Z,21.50
2019-05-01T16:28:00.380Z,21.00
2019-05-01T16:30:28.845Z,20.60
2019-05-01T16:32:57.241Z,20.40
2019-05-01T16:35:25.644Z,20.20
2019-05-01T16:37:55.680Z,20.00
2019-05-01T16:40:37.791Z,19.80
2019-05-01T16:43:07.920Z,19.50
2019-05-01T16:45:36.384Z,19.20
2019-05-01T16:48:05.561Z,18.90
2019-05-01T16:50:33.953Z,18.70
2019-05-01T16:53:02.494Z,18.60
2019-05-01T16:55:30.999Z,18.40
2019-05-01T16:57:59.398Z,18.20
2019-05-01T17:00:56.478Z,18.00
2019-05-01T17:03:29.333Z,17.80
2019-05-01T17:06:16.052Z,17.60
2019-05-01T17:09:02.612Z,17.40
2019-05-01T17:11:32.648Z,17.20
2019-05-01T17:14:01.200Z,17.10
2019-05-01T17:16:29.657Z,17.00
2019-05-01T17:18:58.049Z,16.90
2019-05-01T17:21:26.466Z,16.80
2019-05-01T17:23:54.920Z,16.70
2019-05-01T17:26:23.325Z,16.50
2019-05-01T17:28:51.725Z,16.40
2019-05-01T17:31:20.190Z,16.30
2019-05-01T17:33:50.989Z,16.20
2019-05-01T17:36:18.740Z,16.20
2019-05-01T17:38:49.835Z,16.10
2019-05-01T17:41:17.274Z,16.10
2019-05-01T17:43:49.331Z,16.10
2019-05-01T17:46:15.796Z,16.10
2019-05-01T17:48:44.193Z,16.00
2019-05-01T17:51:12.601Z,15.90
2019-05-01T17:53:40.992Z,15.80
2019-05-01T17:56:10.209Z,15.60
2019-05-01T17:58:39.508Z,15.50
2019-05-01T18:01:27.704Z,15.40
2019-05-01T18:03:57.801Z,15.30
2019-05-01T18:06:27.834Z,15.10
2019-05-01T18:09:02.829Z,15.00
2019-05-01T18:11:26.430Z,14.90
2019-05-01T18:13:54.828Z,14.80
2019-05-01T18:16:23.294Z,14.70
2019-05-01T18:18:51.680Z,14.60
2019-05-01T18:21:20.088Z,14.50
2019-05-01T18:24:02.155Z,14.40
2019-05-01T18:26:48.485Z,14.30
2019-05-01T18:29:24.494Z,14.20
2019-05-01T18:31:52.888Z,14.10
2019-05-01T18:34:21.276Z,14.00
2019-05-01T18:36:54.947Z,13.80
2019-05-01T18:39:32.053Z,13.60
2019-05-01T18:42:02.853Z,13.50
2019-05-01T18:44:31.390Z,13.30
2019-05-01T18:46:59.849Z,13.10
2019-05-01T18:49:28.265Z,13.00
2019-05-01T18:51:56.669Z,13.00
2019-05-01T18:54:25.078Z,13.00
2019-05-01T18:56:54.771Z,12.90
2019-05-01T18:59:23.805Z,12.80
2019-05-01T19:01:52.209Z,12.60
2019-05-01T19:04:23.597Z,12.40
2019-05-01T19:06:50.784Z,12.10
2019-05-01T19:09:29.363Z,11.80
2019-05-01T19:11:49.293Z,11.60
2019-05-01T19:14:23.430Z,11.40
2019-05-01T19:16:49.524Z,11.30
2019-05-01T19:19:17.932Z,11.10
2019-05-01T19:21:48.401Z,10.90
2019-05-01T19:24:18.297Z,10.80
2019-05-01T19:26:47.464Z,10.70
2019-05-01T19:29:15.859Z,10.60
2019-05-01T19:31:44.349Z,10.50
2019-05-01T19:34:12.783Z,10.40
2019-05-01T19:36:45.089Z,10.40
2019-05-01T19:39:12.871Z,10.30
2019-05-01T19:41:43.612Z,10.20
2019-05-01T19:44:13.923Z,10.10
2019-05-01T19:46:42.081Z,10.00
2019-05-01T19:49:10.586Z,10.10
2019-05-01T19:51:39.026Z,10.00
2019-05-01T19:54:07.423Z,10.00
2019-05-01T19:56:35.822Z,9.90
2019-05-01T19:59:04.284Z,9.90
2019-05-01T20:01:32.829Z,9.80
2019-05-01T20:04:01.311Z,9.70
2019-05-01T20:06:29.714Z,9.60
2019-05-01T20:08:58.166Z,9.50
2019-05-01T20:11:26.561Z,9.50
2019-05-01T20:13:54.957Z,9.40
2019-05-01T20:16:23.366Z,9.30
2019-05-01T20:18:51.825Z,9.20
2019-05-01T20:21:20.231Z,9.10
2019-05-01T20:23:48.626Z,9.10
2019-05-01T20:26:17.008Z,9.00
2019-05-01T20:28:47.108Z,9.00
2019-05-01T20:31:15.518Z,8.90
2019-05-01T20:33:44.546Z,8.80
2019-05-01T20:36:13.708Z,8.80
2019-05-01T20:38:42.104Z,8.70
2019-05-01T20:41:15.899Z,8.60
2019-05-01T20:43:43.606Z,8.50
2019-05-01T20:46:10.877Z,8.50
2019-05-01T20:48:39.270Z,8.40
2019-05-01T20:51:07.665Z,8.40
2019-05-01T20:53:36.073Z,8.40
2019-05-01T20:56:18.189Z,8.30
2019-05-01T20:58:46.592Z,8.30
2019-05-01T21:01:15.056Z,8.20
2019-05-01T21:03:45.088Z,8.20
2019-05-01T21:06:15.138Z,8.20
2019-05-01T21:08:45.177Z,8.20
2019-05-01T21:11:15.193Z,8.20
2019-05-01T21:13:43.592Z,8.10
2019-05-01T21:16:11.991Z,8.00
2019-05-01T21:18:40.390Z,7.80
2019-05-01T21:21:08.783Z,7.80
2019-05-01T21:23:37.175Z,7.70
2019-05-01T21:26:05.586Z,7.60
2019-05-01T21:28:34.159Z,7.50
2019-05-01T21:31:03.825Z,7.40
2019-05-01T21:33:33.896Z,7.30
2019-05-01T21:36:04.871Z,7.30
2019-05-01T21:38:33.176Z,7.20
2019-05-01T21:41:02.797Z,7.10
2019-05-01T21:43:33.172Z,7.00
2019-05-01T21:46:03.878Z,7.00
2019-05-01T21:48:33.488Z,7.00
2019-05-01T21:51:03.433Z,6.90
2019-05-01T21:53:32.844Z,6.90
2019-05-01T21:56:02.198Z,6.90
2019-05-01T21:58:34.765Z,6.80
2019-05-01T22:01:02.224Z,6.80
2019-05-01T22:03:30.639Z,6.70
2019-05-01T22:05:59.033Z,6.70
2019-05-01T22:08:27.557Z,6.60
2019-05-01T22:10:57.502Z,6.70
2019-05-01T22:13:26.161Z,6.70
2019-05-01T22:15:59.047Z,6.80
2019-05-01T22:18:41.190Z,6.80
2019-05-01T22:21:11.285Z,6.80
2019-05-01T22:23:58.206Z,6.90
2019-05-01T22:26:28.236Z,6.90
2019-05-01T22:29:01.232Z,6.80
2019-05-01T22:31:37.140Z,6.80
2019-05-01T22:34:22.060Z,6.70
2019-05-01T22:36:50.521Z,6.70
2019-05-01T22:39:20.559Z,6.60
2019-05-01T22:41:48.957Z,6.50
2019-05-01T22:44:17.848Z,6.40
2019-05-01T22:47:10.191Z,6.40
2019-05-01T22:49:37.135Z,6.40
2019-05-01T22:52:05.540Z,6.30
2019-05-01T22:54:33.934Z,6.20
2019-05-01T22:57:02.318Z,6.20
2019-05-01T22:59:30.717Z,6.10
2019-05-01T23:02:17.280Z,6.10
2019-05-01T23:04:48.301Z,6.00
2019-05-01T23:07:16.840Z,6.00
2019-05-01T23:09:46.097Z,5.90
2019-05-01T23:12:14.484Z,5.90
2019-05-01T23:14:42.873Z,5.80
2019-05-01T23:17:18.385Z,5.70
2019-05-01T23:19:46.774Z,5.60
2019-05-01T23:22:15.160Z,5.50
2019-05-01T23:24:43.569Z,5.50
2019-05-01T23:27:11.956Z,5.40
2019-05-01T23:29:40.597Z,5.40
2019-05-01T23:32:08.997Z,5.40
2019-05-01T23:34:37.384Z,5.40
2019-05-01T23:37:06.725Z,5.40
2019-05-01T23:39:40.823Z,5.40
2019-05-01T23:42:05.312Z,5.40
2019-05-01T23:44:33.702Z,5.40
2019-05-01T23:47:02.085Z,5.40
2019-05-01T23:49:30.486Z,5.40
2019-05-01T23:52:03.307Z,5.40
2019-05-01T23:54:28.992Z,5.40
2019-05-01T23:56:57.642Z,5.40
2019-05-01T23:59:26.049Z,5.40
